Home > Products > Valid Products > TAF

000
FTUS41 KCTP 281720
TAFAOO
TAF
KAOO 281720Z 2818/2918 26010G18KT P6SM BKN040
     FM290000 23003KT P6SM OVC070
     FM291200 18006KT P6SM OVC100=



000
FTUS41 KCTP 281720
TAFAOO
TAF
KAOO 281720Z 2818/2918 26010G18KT P6SM BKN040
     FM290000 23003KT P6SM OVC070
     FM291200 18006KT P6SM OVC100=



000
FTUS41 KCTP 281720
TAFBFD
TAF
KBFD 281720Z 2818/2918 28007KT P6SM OVC030
     FM290600 17004KT 4SM -SN OVC020
     FM291400 16007KT P6SM OVC050=



000
FTUS41 KCTP 281720
TAFMDT
TAF
KMDT 281720Z 2818/2918 30014G20KT P6SM BKN050
     FM282300 29004KT P6SM OVC100=



000
FTUS41 KCTP 281720
TAFIPT
TAF
KIPT 281720Z 2818/2918 31010KT P6SM OVC050
     FM290900 VRB02KT 4SM -SN OVC080
     FM291200 09005KT P6SM OVC050=



000
FTUS41 KCTP 281720
TAFMDT
TAF
KMDT 281720Z 2818/2918 30014G20KT P6SM BKN050
     FM282300 29004KT P6SM OVC100=



000
FTUS41 KCTP 281720
TAFUNV
TAF
KUNV 281720Z 2818/2918 29012G18KT P6SM BKN040
     FM282200 28008KT P6SM OVC100
     FM290800 24003KT 5SM -SN OVC030
     FM291200 VRB04KT P6SM OVC050=



000
FTUS41 KCTP 281720
TAFJST
TAF
KJST 281720Z 2818/2918 27012KT P6SM OVC030
     FM282300 23005KT P6SM OVC080
     FM290400 20006KT 3SM BR OVC060
     FM291200 18006KT P6SM OVC060=



000
FTUS41 KCTP 281720
TAFUNV
TAF
KUNV 281720Z 2818/2918 29012G18KT P6SM BKN040
     FM282200 28008KT P6SM OVC100
     FM290800 24003KT 5SM -SN OVC030
     FM291200 VRB04KT P6SM OVC050=



000
FTUS41 KCTP 281720
TAFJST
TAF
KJST 281720Z 2818/2918 27012KT P6SM OVC030
     FM282300 23005KT P6SM OVC080
     FM290400 20006KT 3SM BR OVC060
     FM291200 18006KT P6SM OVC060=



000
FTUS41 KCTP 281720
TAFIPT
TAF
KIPT 281720Z 2818/2918 31010KT P6SM OVC050
     FM290900 VRB02KT 4SM -SN OVC080
     FM291200 09005KT P6SM OVC050=



000
FTUS41 KCTP 281720
TAFBFD
TAF
KBFD 281720Z 2818/2918 28007KT P6SM OVC030
     FM290600 17004KT 4SM -SN OVC020
     FM291400 16007KT P6SM OVC050=



000
FTUS41 KCTP 281518 AAC
TAFIPT
TAF AMD
KIPT 281518Z 2815/2912 31012KT P6SM OVC050
     FM290900 VRB02KT 2SM -SN OVC080=



000
FTUS41 KCTP 281518 AAC
TAFIPT
TAF AMD
KIPT 281518Z 2815/2912 31012KT P6SM OVC050
     FM290900 VRB02KT 2SM -SN OVC080=



000
FTUS41 KCTP 281517 AAA
TAFMDT
TAF AMD
KMDT 281517Z 2815/2912 30014KT P6SM BKN050
     FM282300 29004KT P6SM OVC100=



000
FTUS41 KCTP 281517 AAA
TAFIPT
TAF AMD
KIPT 281517Z 2815/2912 21012KT P6SM OVC050
     FM290900 VRB02KT 2SM -SN OVC080=



000
FTUS41 KCTP 281517 AAA
TAFIPT
TAF AMD
KIPT 281517Z 2815/2912 21012KT P6SM OVC050
     FM290900 VRB02KT 2SM -SN OVC080=



000
FTUS41 KCTP 281517 AAB
TAFIPT
TAF AMD
KIPT 281517Z 2815/2912 31012KT P6SM OVC050
     FM290900 VRB02KT 2SM -SN OVC080=



000
FTUS41 KCTP 281517 AAB
TAFIPT
TAF AMD
KIPT 281517Z 2815/2912 31012KT P6SM OVC050
     FM290900 VRB02KT 2SM -SN OVC080=



000
FTUS41 KCTP 281516 AAA
TAFAOO
TAF AMD
KAOO 281516Z 2815/2912 30012KT P6SM SCT025 BKN040
     FM290000 23003KT P6SM OVC070=



000
FTUS41 KCTP 281516 AAA
TAFAOO
TAF AMD
KAOO 281516Z 2815/2912 30012KT P6SM SCT025 BKN040
     FM290000 23003KT P6SM OVC070=



000
FTUS41 KCTP 281516 AAA
TAFJST
TAF AMD
KJST 281516Z 2815/2912 30012KT 3SM -SN BKN012 OVC025
     FM281800 27009KT P6SM OVC035
     FM282300 23005KT P6SM OVC080=



000
FTUS41 KCTP 281516 AAA
TAFJST
TAF AMD
KJST 281516Z 2815/2912 30012KT 3SM -SN BKN012 OVC025
     FM281800 27009KT P6SM OVC035
     FM282300 23005KT P6SM OVC080=



000
FTUS41 KCTP 281516 AAA
TAFUNV
TAF AMD
KUNV 281516Z 2815/2912 29012KT P6SM BKN040
     FM290800 24003KT 2SM -SN OVC030=



000
FTUS41 KCTP 281516 AAA
TAFUNV
TAF AMD
KUNV 281516Z 2815/2912 29012KT P6SM BKN040
     FM290800 24003KT 2SM -SN OVC030=



000
FTUS41 KCTP 281515 AAA
TAFBFD
TAF AMD
KBFD 281515Z 2815/2912 31009KT 4SM -SN SCT012 OVC020
     FM281800 28007KT P6SM OVC035
     FM290600 17004KT 2SM -SN OVC015=



000
FTUS41 KCTP 281137
TAFIPT
TAF
KIPT 281137Z 2812/2912 29008KT P6SM BKN045
     FM290900 VRB02KT 2SM -SN OVC080=



000
FTUS41 KCTP 281137
TAFAOO
TAF
KAOO 281137Z 2812/2912 30009KT P6SM SCT025 BKN040
     FM290000 23003KT P6SM OVC070=



000
FTUS41 KCTP 281137
TAFUNV
TAF
KUNV 281137Z 2812/2912 29008KT P6SM BKN040
     FM290800 24003KT 2SM -SN OVC030=



000
FTUS41 KCTP 281137
TAFMDT
TAF
KMDT 281137Z 2812/2912 30010KT P6SM SCT045
     FM282300 29004KT P6SM OVC100=



000
FTUS41 KCTP 281137
TAFUNV
TAF
KUNV 281137Z 2812/2912 29008KT P6SM BKN040
     FM290800 24003KT 2SM -SN OVC030=



000
FTUS41 KCTP 281137
TAFIPT
TAF
KIPT 281137Z 2812/2912 29008KT P6SM BKN045
     FM290900 VRB02KT 2SM -SN OVC080=



000
FTUS41 KCTP 281137
TAFMDT
TAF
KMDT 281137Z 2812/2912 30010KT P6SM SCT045
     FM282300 29004KT P6SM OVC100=



000
FTUS41 KCTP 281137
TAFAOO
TAF
KAOO 281137Z 2812/2912 30009KT P6SM SCT025 BKN040
     FM290000 23003KT P6SM OVC070=



000
FTUS41 KCTP 281137
TAFBFD
TAF
KBFD 281137Z 2812/2912 30008KT 5SM -SN BKN015 OVC025
     FM281400 29009KT 6SM -SN SCT015 OVC025
     FM281800 28007KT P6SM OVC035
     FM290600 17004KT 2SM -SN OVC015=



000
FTUS41 KCTP 281137
TAFJST
TAF
KJST 281137Z 2812/2912 30012KT P6SM SCT015 OVC025
     FM281800 27009KT P6SM OVC035
     FM282300 23005KT P6SM OVC080=



000
FTUS41 KCTP 281137
TAFBFD
TAF
KBFD 281137Z 2812/2912 30008KT 5SM -SN BKN015 OVC025
     FM281400 29009KT 6SM -SN SCT015 OVC025
     FM281800 28007KT P6SM OVC035
     FM290600 17004KT 2SM -SN OVC015=



000
FTUS41 KCTP 281137
TAFJST
TAF
KJST 281137Z 2812/2912 30012KT P6SM SCT015 OVC025
     FM281800 27009KT P6SM OVC035
     FM282300 23005KT P6SM OVC080=



000
FTUS41 KCTP 281003 AAB
TAFMDT
TAF AMD
KMDT 281003Z 2810/2906 30010KT P6SM SCT045
     FM282300 29004KT P6SM OVC100=



000
FTUS41 KCTP 281003 AAB
TAFMDT
TAF AMD
KMDT 281003Z 2810/2906 30010KT P6SM SCT045
     FM282300 29004KT P6SM OVC100=



000
FTUS41 KCTP 281002 AAB
TAFIPT
TAF AMD
KIPT 281002Z 2810/2906 29008KT P6SM BKN045
     FM290000 VRB02KT P6SM OVC080=



000
FTUS41 KCTP 281001 AAB
TAFUNV
TAF AMD
KUNV 281001Z 2810/2906 29008KT P6SM BKN040
     FM290000 24003KT P6SM OVC100=



000
FTUS41 KCTP 281001 AAC
TAFAOO
TAF AMD
KAOO 281001Z 2810/2906 30008KT 5SM -SN VCSH OVC025
      TEMPO 2810/2811 2SM -SN OVC015
     FM281100 30009KT P6SM SCT025 BKN035
     FM281500 29010KT P6SM BKN040
     FM290000 23003KT P6SM OVC070=



000
FTUS41 KCTP 281001 AAC
TAFAOO
TAF AMD
KAOO 281001Z 2810/2906 30008KT 5SM -SN VCSH OVC025
      TEMPO 2810/2811 2SM -SN OVC015
     FM281100 30009KT P6SM SCT025 BKN035
     FM281500 29010KT P6SM BKN040
     FM290000 23003KT P6SM OVC070=



000
FTUS41 KCTP 281001 AAB
TAFUNV
TAF AMD
KUNV 281001Z 2810/2906 29008KT P6SM BKN040
     FM290000 24003KT P6SM OVC100=



000
FTUS41 KCTP 280959 AAD
TAFJST
TAF AMD
KJST 280959Z 2810/2906 30012KT 5SM -SN BKN006 OVC012
     FM281030 29011KT 3SM -SN BR SCT007 OVC015
     FM281500 28011KT P6SM OVC025
     FM281800 27009KT P6SM SCT040 OVC100
     FM290400 22005KT 3SM -SN OVC025=



000
FTUS41 KCTP 280959 AAD
TAFJST
TAF AMD
KJST 280959Z 2810/2906 30012KT 5SM -SN BKN006 OVC012
     FM281030 29011KT 3SM -SN BR SCT007 OVC015
     FM281500 28011KT P6SM OVC025
     FM281800 27009KT P6SM SCT040 OVC100
     FM290400 22005KT 3SM -SN OVC025=



000
FTUS41 KCTP 280955 AAA
TAFBFD
TAF AMD
KBFD 280955Z 2810/2906 31009KT 5SM -SN SCT015 OVC025
     FM281800 28007KT P6SM OVC035
     FM290400 20003KT 3SM -SN OVC025=



000
FTUS41 KCTP 280955 AAA
TAFBFD
TAF AMD
KBFD 280955Z 2810/2906 31009KT 5SM -SN SCT015 OVC025
     FM281800 28007KT P6SM OVC035
     FM290400 20003KT 3SM -SN OVC025=



000
FTUS41 KCTP 280831 AAC
TAFJST
TAF AMD
KJST 280831Z 2809/2906 28011G21KT 6SM -SHSN OVC012
     FM280845 29012KT 1/2SM SN FG OVC005
     FM281030 28010KT 3SM -SN BR SCT007 OVC015
     FM281500 28011KT P6SM OVC025
     FM281800 27009KT P6SM SCT040 OVC100
     FM290400 22005KT 3SM -SN OVC025=



000
FTUS41 KCTP 280758 AAB
TAFAOO
TAF AMD
KAOO 280758Z 2808/2906 29010KT 5SM -SN VCSH OVC025
     FM281000 29009KT P6SM SCT025 BKN035
     FM281500 29010KT P6SM BKN040
     FM290000 23003KT P6SM OVC070=



000
FTUS41 KCTP 280758 AAB
TAFAOO
TAF AMD
KAOO 280758Z 2808/2906 29010KT 5SM -SN VCSH OVC025
     FM281000 29009KT P6SM SCT025 BKN035
     FM281500 29010KT P6SM BKN040
     FM290000 23003KT P6SM OVC070=



000
FTUS41 KCTP 280754 AAB
TAFJST
TAF AMD
KJST 280754Z 2808/2906 28011G21KT 6SM -SHSN OVC012
     FM280925 29012KT 1/2SM SN FG OVC005
     FM281030 28010KT 3SM -SN BR SCT007 OVC015
     FM281500 28011KT P6SM OVC025
     FM281800 27009KT P6SM SCT040 OVC100
     FM290400 22005KT 3SM -SN OVC025=



000
FTUS41 KCTP 280754 AAB
TAFJST
TAF AMD
KJST 280754Z 2808/2906 28011G21KT 6SM -SHSN OVC012
     FM280925 29012KT 1/2SM SN FG OVC005
     FM281030 28010KT 3SM -SN BR SCT007 OVC015
     FM281500 28011KT P6SM OVC025
     FM281800 27009KT P6SM SCT040 OVC100
     FM290400 22005KT 3SM -SN OVC025=



000
FTUS41 KCTP 280604 AAA
TAFMDT
TAF AMD
KMDT 280604Z 2806/2906 30010KT P6SM SCT040 BKN090
     FM282300 29004KT P6SM OVC100=



000
FTUS41 KCTP 280604 AAA
TAFMDT
TAF AMD
KMDT 280604Z 2806/2906 30010KT P6SM SCT040 BKN090
     FM282300 29004KT P6SM OVC100=



000
FTUS41 KCTP 280601 AAA
TAFIPT
TAF AMD
KIPT 280601Z 2806/2906 29006KT P6SM BKN045
     FM290000 VRB02KT P6SM OVC080=



000
FTUS41 KCTP 280601 AAA
TAFIPT
TAF AMD
KIPT 280601Z 2806/2906 29006KT P6SM BKN045
     FM290000 VRB02KT P6SM OVC080=



000
FTUS41 KCTP 280558 AAA
TAFUNV
TAF AMD
KUNV 280558Z 2806/2906 27009KT P6SM BKN025
     FM280800 28009KT P6SM BKN040
     FM290000 24003KT P6SM OVC100=



000
FTUS41 KCTP 280558 AAA
TAFUNV
TAF AMD
KUNV 280558Z 2806/2906 27009KT P6SM BKN025
     FM280800 28009KT P6SM BKN040
     FM290000 24003KT P6SM OVC100=



000
FTUS41 KCTP 280553 AAA
TAFAOO
TAF AMD
KAOO 280553Z 2806/2906 30010KT 6SM -SN SCT025 OVC035
     FM280600 29010KT 5SM -SN VCSH OVC025
     FM280830 29009KT P6SM SCT025 BKN035
     FM281500 29010KT P6SM BKN040
     FM290000 23003KT P6SM OVC070=



000
FTUS41 KCTP 280553 AAA
TAFAOO
TAF AMD
KAOO 280553Z 2806/2906 30010KT 6SM -SN SCT025 OVC035
     FM280600 29010KT 5SM -SN VCSH OVC025
     FM280830 29009KT P6SM SCT025 BKN035
     FM281500 29010KT P6SM BKN040
     FM290000 23003KT P6SM OVC070=



000
FTUS41 KCTP 280544 AAA
TAFJST
TAF AMD
KJST 280544Z 2806/2906 28011KT 1SM -SN BR OVC007
      TEMPO 2806/2808 1/2SM SN FG
     FM281000 28010KT 3SM -SN BR SCT007 OVC015
     FM281500 28011KT P6SM OVC025
     FM281800 27009KT P6SM SCT040 OVC100
     FM290400 22005KT 3SM -SN OVC025=



000
FTUS41 KCTP 280544 AAA
TAFJST
TAF AMD
KJST 280544Z 2806/2906 28011KT 1SM -SN BR OVC007
      TEMPO 2806/2808 1/2SM SN FG
     FM281000 28010KT 3SM -SN BR SCT007 OVC015
     FM281500 28011KT P6SM OVC025
     FM281800 27009KT P6SM SCT040 OVC100
     FM290400 22005KT 3SM -SN OVC025=



000
FTUS41 KCTP 280540
TAFMDT
TAF
KMDT 280540Z 2806/2906 31008KT P6SM BKN050
     FM281400 31010G20KT P6SM SCT050
     FM282100 28004KT P6SM BKN150=



000
FTUS41 KCTP 280540
TAFAOO
TAF
KAOO 280540Z 2806/2906 29010KT 6SM -SHSN OVC025
     FM281500 29010KT P6SM BKN040
     FM282100 25005KT P6SM BKN150=



000
FTUS41 KCTP 280540
TAFUNV
TAF
KUNV 280540Z 2806/2906 27010KT P6SM SCT025 OVC050
     FM281500 29010G15KT P6SM BKN040
     FM282100 26005KT P6SM BKN150=



000
FTUS41 KCTP 280540
TAFJST
TAF
KJST 280540Z 2806/2906 28011KT 1SM -SN BR OVC007
      TEMPO 2806/2808 1/2SM SN FG
     FM281000 29010KT 3SM -SN BR SCT007 OVC015
     FM281500 29012KT P6SM -SHSN OVC025
     FM281800 28010KT P6SM BKN050=



000
FTUS41 KCTP 280540
TAFIPT
TAF
KIPT 280540Z 2806/2906 30005KT P6SM SCT025 OVC050
     FM281500 29010G15KT P6SM BKN050
     FM282100 29004KT P6SM BKN150=



000
FTUS41 KCTP 280540
TAFJST
TAF
KJST 280540Z 2806/2906 28011KT 1SM -SN BR OVC007
      TEMPO 2806/2808 1/2SM SN FG
     FM281000 29010KT 3SM -SN BR SCT007 OVC015
     FM281500 29012KT P6SM -SHSN OVC025
     FM281800 28010KT P6SM BKN050=



000
FTUS41 KCTP 280540
TAFMDT
TAF
KMDT 280540Z 2806/2906 31008KT P6SM BKN050
     FM281400 31010G20KT P6SM SCT050
     FM282100 28004KT P6SM BKN150=



000
FTUS41 KCTP 280540
TAFAOO
TAF
KAOO 280540Z 2806/2906 29010KT 6SM -SHSN OVC025
     FM281500 29010KT P6SM BKN040
     FM282100 25005KT P6SM BKN150=



000
FTUS41 KCTP 280540
TAFUNV
TAF
KUNV 280540Z 2806/2906 27010KT P6SM SCT025 OVC050
     FM281500 29010G15KT P6SM BKN040
     FM282100 26005KT P6SM BKN150=



000
FTUS41 KCTP 280540
TAFBFD
TAF
KBFD 280540Z 2806/2906 30009KT 4SM -SN OVC015
     FM281500 28007KT P6SM OVC035
     FM290400 20003KT 3SM -SN OVC025=



000
FTUS41 KCTP 280540
TAFBFD
TAF
KBFD 280540Z 2806/2906 30009KT 4SM -SN OVC015
     FM281500 28007KT P6SM OVC035
     FM290400 20003KT 3SM -SN OVC025=



000
FTUS41 KCTP 280540
TAFIPT
TAF
KIPT 280540Z 2806/2906 30005KT P6SM SCT025 OVC050
     FM281500 29010G15KT P6SM BKN050
     FM282100 29004KT P6SM BKN150=



000
FTUS41 KCTP 280316 AAB
TAFMDT
TAF AMD
KMDT 280316Z 2803/2824 31008KT P6SM OVC050
     FM280600 31008KT P6SM BKN050
     FM281400 31010G20KT P6SM SCT050
     FM282100 28004KT P6SM BKN150=



000
FTUS41 KCTP 280316 AAB
TAFUNV
TAF AMD
KUNV 280316Z 2803/2824 27010KT P6SM SCT025 OVC050
     FM281500 29010G15KT P6SM BKN040
     FM282100 26005KT P6SM BKN150=



000
FTUS41 KCTP 280316 AAB
TAFIPT
TAF AMD
KIPT 280316Z 2803/2824 30005KT P6SM SCT025 OVC050
     FM281500 29010G15KT P6SM BKN050
     FM282100 29004KT P6SM BKN150=



000
FTUS41 KCTP 280316 AAB
TAFAOO
TAF AMD
KAOO 280316Z 2803/2824 29010KT 6SM -SHSN OVC025
     FM281500 29010KT P6SM BKN040
     FM282100 25005KT P6SM BKN150=



000
FTUS41 KCTP 280316 AAB
TAFBFD
TAF AMD
KBFD 280316Z 2803/2824 27008KT 2SM -SHSN OVC015
     FM280600 30008KT 4SM -SHSN OVC015
     FM281500 28010KT P6SM -SHSN OVC025
     FM281800 27007KT P6SM OVC050=



000
FTUS41 KCTP 280316 AAC
TAFJST
TAF AMD
KJST 280316Z 2803/2824 29012KT 1SM -SHSN OVC007
     FM281500 29012KT P6SM -SHSN OVC025
     FM281800 28010KT P6SM BKN050=



000
FTUS41 KCTP 280316 AAB
TAFBFD
TAF AMD
KBFD 280316Z 2803/2824 27008KT 2SM -SHSN OVC015
     FM280600 30008KT 4SM -SHSN OVC015
     FM281500 28010KT P6SM -SHSN OVC025
     FM281800 27007KT P6SM OVC050=



000
FTUS41 KCTP 280316 AAB
TAFMDT
TAF AMD
KMDT 280316Z 2803/2824 31008KT P6SM OVC050
     FM280600 31008KT P6SM BKN050
     FM281400 31010G20KT P6SM SCT050
     FM282100 28004KT P6SM BKN150=



000
FTUS41 KCTP 280316 AAB
TAFAOO
TAF AMD
KAOO 280316Z 2803/2824 29010KT 6SM -SHSN OVC025
     FM281500 29010KT P6SM BKN040
     FM282100 25005KT P6SM BKN150=



000
FTUS41 KCTP 280316 AAB
TAFUNV
TAF AMD
KUNV 280316Z 2803/2824 27010KT P6SM SCT025 OVC050
     FM281500 29010G15KT P6SM BKN040
     FM282100 26005KT P6SM BKN150=



000
FTUS41 KCTP 280316 AAC
TAFJST
TAF AMD
KJST 280316Z 2803/2824 29012KT 1SM -SHSN OVC007
     FM281500 29012KT P6SM -SHSN OVC025
     FM281800 28010KT P6SM BKN050=



000
FTUS41 KCTP 280316 AAB
TAFIPT
TAF AMD
KIPT 280316Z 2803/2824 30005KT P6SM SCT025 OVC050
     FM281500 29010G15KT P6SM BKN050
     FM282100 29004KT P6SM BKN150=



000
FTUS41 KCTP 280007 RRA
TAFIPT
TAF
KIPT 280007Z 2800/2824 30005KT P6SM SCT025 OVC050
     FM281500 29010G15KT P6SM BKN050
     FM282100 29004KT P6SM BKN150=



000
FTUS41 KCTP 280007 RRA
TAFMDT
TAF
KMDT 280007Z 2800/2824 32005KT P6SM SCT025 OVC050
     FM280600 31008KT P6SM SCT025 BKN050
     FM281400 31010G20KT P6SM SCT050
     FM282100 28004KT P6SM BKN150=



000
FTUS41 KCTP 280007 RRA
TAFAOO
TAF
KAOO 280007Z 2800/2824 30005KT 5SM -SHSN OVC015
     FM280200 30010KT P6SM OVC025
     FM281500 29010KT P6SM BKN040
     FM282100 25005KT P6SM BKN150=



000
FTUS41 KCTP 280007 RRA
TAFUNV
TAF
KUNV 280007Z 2800/2824 28008KT 5SM -SHSN SCT025 BKN050
     FM280200 27010KT P6SM OVC035
     FM281500 29010G15KT P6SM BKN040
     FM282100 26005KT P6SM BKN150=



000
FTUS41 KCTP 280007 RRA
TAFBFD
TAF
KBFD 280007Z 2800/2824 29008KT 4SM -SHSN OVC025
     FM280200 30008KT 2SM -SHSN OVC020
     FM280600 30008KT 4SM -SHSN OVC015
     FM281500 28010KT P6SM -SHSN OVC025
     FM281800 27007KT P6SM OVC050=



000
FTUS41 KCTP 280007 RRA
TAFJST
TAF
KJST 280007Z 2800/2824 29015KT 1 1/2SM -SHSN OVC008
     FM280200 29012KT 3SM -SHSN OVC007
     FM281500 29012KT P6SM -SHSN OVC025
     FM281800 28010KT P6SM BKN050=



000
FTUS41 KCTP 280007 RRA
TAFMDT
TAF
KMDT 280007Z 2800/2824 32005KT P6SM SCT025 OVC050
     FM280600 31008KT P6SM SCT025 BKN050
     FM281400 31010G20KT P6SM SCT050
     FM282100 28004KT P6SM BKN150=



000
FTUS41 KCTP 280007 RRA
TAFAOO
TAF
KAOO 280007Z 2800/2824 30005KT 5SM -SHSN OVC015
     FM280200 30010KT P6SM OVC025
     FM281500 29010KT P6SM BKN040
     FM282100 25005KT P6SM BKN150=



000
FTUS41 KCTP 280007 RRA
TAFBFD
TAF
KBFD 280007Z 2800/2824 29008KT 4SM -SHSN OVC025
     FM280200 30008KT 2SM -SHSN OVC020
     FM280600 30008KT 4SM -SHSN OVC015
     FM281500 28010KT P6SM -SHSN OVC025
     FM281800 27007KT P6SM OVC050=



000
FTUS41 KCTP 280007 RRA
TAFUNV
TAF
KUNV 280007Z 2800/2824 28008KT 5SM -SHSN SCT025 BKN050
     FM280200 27010KT P6SM OVC035
     FM281500 29010G15KT P6SM BKN040
     FM282100 26005KT P6SM BKN150=



000
FTUS41 KCTP 280007 RRA
TAFJST
TAF
KJST 280007Z 2800/2824 29015KT 1 1/2SM -SHSN OVC008
     FM280200 29012KT 3SM -SHSN OVC007
     FM281500 29012KT P6SM -SHSN OVC025
     FM281800 28010KT P6SM BKN050=



000
FTUS41 KCTP 280007 RRA
TAFIPT
TAF
KIPT 280007Z 2800/2824 30005KT P6SM SCT025 OVC050
     FM281500 29010G15KT P6SM BKN050
     FM282100 29004KT P6SM BKN150=



000
FTUS41 KCTP 272148 AAA
TAFMDT
TAF AMD
KMDT 272148Z 2722/2818 31005KT P6SM SCT025 OVC050
     FM280600 31010KT P6SM SCT025 OVC050
     FM281200 31012KT P6SM BKN050=



000
FTUS41 KCTP 272148 AAA
TAFIPT
TAF AMD
KIPT 272148Z 2722/2818 27005KT P6SM SCT025 OVC050
     FM281200 28010KT P6SM BKN050=



000
FTUS41 KCTP 272148 AAA
TAFBFD
TAF AMD
KBFD 272148Z 2722/2818 30005KT 1 1/2SM -SHSN OVC015
     FM280000 29008KT 3SM -SHSN OVC015
     FM281500 28010KT P6SM BKN025=



000
FTUS41 KCTP 272148 AAA
TAFAOO
TAF AMD
KAOO 272148Z 2722/2818 30010KT 2SM -SHSN OVC025
      TEMPO 2722/2724 3/4SM -SHSN OVC015
     FM280000 29010KT 5SM -SHSN OVC025
     FM280300 30010KT P6SM OVC030
     FM281500 29010KT P6SM BKN040=



000
FTUS41 KCTP 272148 AAA
TAFUNV
TAF AMD
KUNV 272148Z 2722/2818 28005KT P6SM SCT025 BKN050
      TEMPO 2722/2724 3SM -SHSN OVC025
     FM280300 27010KT P6SM OVC035
     FM281500 29010KT P6SM BKN040=



000
FTUS41 KCTP 272148 AAB
TAFJST
TAF AMD
KJST 272148Z 2722/2818 27008KT 1SM -SHSN OVC010
      TEMPO 2722/2724 1/4SM +SHSN FZFG OVC005
     FM280000 29010G15KT 1SM -SHSN OVC007
     FM281500 28010KT P6SM BKN020=



000
FTUS41 KCTP 272148 AAA
TAFUNV
TAF AMD
KUNV 272148Z 2722/2818 28005KT P6SM SCT025 BKN050
      TEMPO 2722/2724 3SM -SHSN OVC025
     FM280300 27010KT P6SM OVC035
     FM281500 29010KT P6SM BKN040=



000
FTUS41 KCTP 272148 AAA
TAFAOO
TAF AMD
KAOO 272148Z 2722/2818 30010KT 2SM -SHSN OVC025
      TEMPO 2722/2724 3/4SM -SHSN OVC015
     FM280000 29010KT 5SM -SHSN OVC025
     FM280300 30010KT P6SM OVC030
     FM281500 29010KT P6SM BKN040=



000
FTUS41 KCTP 272148 AAA
TAFIPT
TAF AMD
KIPT 272148Z 2722/2818 27005KT P6SM SCT025 OVC050
     FM281200 28010KT P6SM BKN050=



000
FTUS41 KCTP 272148 AAA
TAFBFD
TAF AMD
KBFD 272148Z 2722/2818 30005KT 1 1/2SM -SHSN OVC015
     FM280000 29008KT 3SM -SHSN OVC015
     FM281500 28010KT P6SM BKN025=



000
FTUS41 KCTP 272148 AAA
TAFMDT
TAF AMD
KMDT 272148Z 2722/2818 31005KT P6SM SCT025 OVC050
     FM280600 31010KT P6SM SCT025 OVC050
     FM281200 31012KT P6SM BKN050=



000
FTUS41 KCTP 272148 AAB
TAFJST
TAF AMD
KJST 272148Z 2722/2818 27008KT 1SM -SHSN OVC010
      TEMPO 2722/2724 1/4SM +SHSN FZFG OVC005
     FM280000 29010G15KT 1SM -SHSN OVC007
     FM281500 28010KT P6SM BKN020=



000
FTUS41 KCTP 272024 AAA
TAFJST
TAF AMD
KJST 272024Z 2720/2818 29009KT 6SM -SN BKN015 OVC025
      TEMPO 2721/2723 1SM -SN BR OVC009
     FM272300 29009G15KT 1 1/2SM -SN BKN008 OVC015
     FM280000 29013G24KT 1SM -SN BR OVC007=



000
FTUS41 KCTP 272024 AAA
TAFJST
TAF AMD
KJST 272024Z 2720/2818 29009KT 6SM -SN BKN015 OVC025
      TEMPO 2721/2723 1SM -SN BR OVC009
     FM272300 29009G15KT 1 1/2SM -SN BKN008 OVC015
     FM280000 29013G24KT 1SM -SN BR OVC007=



000
FTUS41 KCTP 271742
TAFBFD
TAF
KBFD 271742Z 2718/2818 31008KT P6SM -SHSN SCT012 BKN035
     FM272100 30010G18KT 1 1/2SM -SN BKN008 OVC015
     FM280000 28012G18KT 3SM -SN OVC025=



000
FTUS41 KCTP 271742
TAFAOO
TAF
KAOO 271742Z 2718/2818 30004KT P6SM SCT015 BKN035
      TEMPO 2718/2721 4SM -SN OVC015
     FM272100 31008KT P6SM SCT025 OVC040
     FM280100 30010G19KT P6SM VCSH BKN028 BKN045=



000
FTUS41 KCTP 271742
TAFUNV
TAF
KUNV 271742Z 2718/2818 00000KT 4SM -SN BR SCT009 OVC025
      TEMPO 2718/2721 2SM -SN SCT025 BKN035
     FM272100 30008KT P6SM SCT028 OVC040
     FM280100 30010G19KT P6SM VCSH BKN028 BKN045=



000
FTUS41 KCTP 271742
TAFJST
TAF
KJST 271742Z 2718/2818 29009KT 6SM -SN SCT015 OVC020
      TEMPO 2718/2721 1SM -SN OVC009
     FM272100 29009G15KT 1 1/2SM -SN BKN008 OVC015
     FM280000 29013G24KT 1SM -SN BR OVC007=



000
FTUS41 KCTP 271742
TAFIPT
TAF
KIPT 271742Z 2718/2818 27003KT P6SM -SN SCT015 OVC050
     FM280300 30010G19KT P6SM VCSH BKN028 BKN045=



000
FTUS41 KCTP 271742
TAFMDT
TAF
KMDT 271742Z 2718/2818 32012KT P6SM OVC060
     FM272100 30007KT P6SM BKN070=



000
FTUS41 KCTP 271742
TAFIPT
TAF
KIPT 271742Z 2718/2818 27003KT P6SM -SN SCT015 OVC050
     FM280300 30010G19KT P6SM VCSH BKN028 BKN045=



000
FTUS41 KCTP 271742
TAFUNV
TAF
KUNV 271742Z 2718/2818 00000KT 4SM -SN BR SCT009 OVC025
      TEMPO 2718/2721 2SM -SN SCT025 BKN035
     FM272100 30008KT P6SM SCT028 OVC040
     FM280100 30010G19KT P6SM VCSH BKN028 BKN045=



000
FTUS41 KCTP 271742
TAFBFD
TAF
KBFD 271742Z 2718/2818 31008KT P6SM -SHSN SCT012 BKN035
     FM272100 30010G18KT 1 1/2SM -SN BKN008 OVC015
     FM280000 28012G18KT 3SM -SN OVC025=



000
FTUS41 KCTP 271742
TAFJST
TAF
KJST 271742Z 2718/2818 29009KT 6SM -SN SCT015 OVC020
      TEMPO 2718/2721 1SM -SN OVC009
     FM272100 29009G15KT 1 1/2SM -SN BKN008 OVC015
     FM280000 29013G24KT 1SM -SN BR OVC007=



000
FTUS41 KCTP 271742
TAFAOO
TAF
KAOO 271742Z 2718/2818 30004KT P6SM SCT015 BKN035
      TEMPO 2718/2721 4SM -SN OVC015
     FM272100 31008KT P6SM SCT025 OVC040
     FM280100 30010G19KT P6SM VCSH BKN028 BKN045=



000
FTUS41 KCTP 271742
TAFMDT
TAF
KMDT 271742Z 2718/2818 32012KT P6SM OVC060
     FM272100 30007KT P6SM BKN070=



000
FTUS41 KCTP 271507 AAB
TAFBFD
TAF AMD
KBFD 271507Z 2715/2812 VRB03KT 2SM -SN BR BKN010 OVC015
      TEMPO 2715/2717 1SM -SN OVC009
     FM271700 32008KT P6SM -SHSN BKN012 OVC020
     FM272100 30010G18KT 1 1/2SM -SN BKN008 OVC015
     FM280000 28012G18KT 1SM -SN OVC008=



000
FTUS41 KCTP 271507 AAB
TAFBFD
TAF AMD
KBFD 271507Z 2715/2812 VRB03KT 2SM -SN BR BKN010 OVC015
      TEMPO 2715/2717 1SM -SN OVC009
     FM271700 32008KT P6SM -SHSN BKN012 OVC020
     FM272100 30010G18KT 1 1/2SM -SN BKN008 OVC015
     FM280000 28012G18KT 1SM -SN OVC008=



000
FTUS41 KCTP 271506 AAC
TAFAOO
TAF AMD
KAOO 271506Z 2715/2812 VRB04KT 6SM -SN BR BKN025 OVC040
      TEMPO 2715/2717 1SM -SN OVC015
     FM271700 31008KT P6SM SCT025 OVC040
     FM280100 30010G19KT P6SM VCSH BKN028 BKN045=



000
FTUS41 KCTP 271506 AAC
TAFAOO
TAF AMD
KAOO 271506Z 2715/2812 VRB04KT 6SM -SN BR BKN025 OVC040
      TEMPO 2715/2717 1SM -SN OVC015
     FM271700 31008KT P6SM SCT025 OVC040
     FM280100 30010G19KT P6SM VCSH BKN028 BKN045=



000
FTUS41 KCTP 271449 AAB
TAFUNV
TAF AMD
KUNV 271449Z 2715/2812 00000KT 3SM -SN BR OVC012
      TEMPO 2715/2717 3/4SM -SN OVC005
     FM271700 30008KT P6SM SCT028 OVC040
     FM280100 30010G19KT P6SM VCSH BKN028 BKN045=



000
FTUS41 KCTP 271449 AAB
TAFUNV
TAF AMD
KUNV 271449Z 2715/2812 00000KT 3SM -SN BR OVC012
      TEMPO 2715/2717 3/4SM -SN OVC005
     FM271700 30008KT P6SM SCT028 OVC040
     FM280100 30010G19KT P6SM VCSH BKN028 BKN045=



000
FTUS41 KCTP 271444 AAB
TAFJST
TAF AMD
KJST 271444Z 2715/2812 30006KT 2SM -SN BR SCT004 OVC009
      TEMPO 2715/2717 3/4SM -SN OVC004
     FM271700 30010KT 6SM -SHSN HZ BKN015 OVC025
     FM272000 29009G15KT 1 1/2SM -SN BKN008 OVC015
     FM280000 29013G24KT 1SM -SN BR OVC007=



000
FTUS41 KCTP 271444 AAB
TAFJST
TAF AMD
KJST 271444Z 2715/2812 30006KT 2SM -SN BR SCT004 OVC009
      TEMPO 2715/2717 3/4SM -SN OVC004
     FM271700 30010KT 6SM -SHSN HZ BKN015 OVC025
     FM272000 29009G15KT 1 1/2SM -SN BKN008 OVC015
     FM280000 29013G24KT 1SM -SN BR OVC007=



000
FTUS41 KCTP 271306 AAB
TAFAOO
TAF AMD
KAOO 271306Z 2713/2812 VRB04KT 3SM BR OVC040
      TEMPO 2714/2716 31006KT 5SM BR OVC040
     FM271600 31008KT P6SM SCT025 OVC040
     FM280100 30010G19KT P6SM VCSH BKN028 BKN045=



000
FTUS41 KCTP 271306 AAB
TAFAOO
TAF AMD
KAOO 271306Z 2713/2812 VRB04KT 3SM BR OVC040
      TEMPO 2714/2716 31006KT 5SM BR OVC040
     FM271600 31008KT P6SM SCT025 OVC040
     FM280100 30010G19KT P6SM VCSH BKN028 BKN045=



000
FTUS41 KCTP 271256 AAA
TAFUNV
TAF AMD
KUNV 271256Z 2713/2812 35003KT 4SM HZ OVC028
     FM271500 30008KT P6SM SCT028 OVC040
     FM280100 30010G19KT P6SM VCSH BKN028 BKN045=



000
FTUS41 KCTP 271256 AAA
TAFUNV
TAF AMD
KUNV 271256Z 2713/2812 35003KT 4SM HZ OVC028
     FM271500 30008KT P6SM SCT028 OVC040
     FM280100 30010G19KT P6SM VCSH BKN028 BKN045=



000
FTUS41 KCTP 271255 AAA
TAFBFD
TAF AMD
KBFD 271255Z 2713/2812 VRB05KT 6SM HZ BKN006 OVC011
     FM271500 32008KT P6SM -SHSN BKN012 OVC020
     FM272100 30010G18KT 1 1/2SM -SN BKN008 OVC015
     FM280000 28012G18KT 1SM -SN OVC008=



000
FTUS41 KCTP 271255 AAA
TAFBFD
TAF AMD
KBFD 271255Z 2713/2812 VRB05KT 6SM HZ BKN006 OVC011
     FM271500 32008KT P6SM -SHSN BKN012 OVC020
     FM272100 30010G18KT 1 1/2SM -SN BKN008 OVC015
     FM280000 28012G18KT 1SM -SN OVC008=



000
FTUS41 KCTP 271254 AAA
TAFJST
TAF AMD
KJST 271254Z 2713/2812 31006KT 4SM BR BKN022 OVC035
     FM271500 30010KT 6SM -SHSN HZ BKN015 OVC025
     FM272000 29009G15KT 1 1/2SM -SN BKN008 OVC015
     FM280000 29013G24KT 1SM -SN BR OVC007=



000
FTUS41 KCTP 271254 AAA
TAFAOO
TAF AMD
KAOO 271254Z 2713/2812 VRB04KT 1 1/2SM BR OVC040
      TEMPO 2714/2716 31006KT 5SM BR OVC040
     FM271600 31008KT P6SM SCT025 OVC040
     FM280100 30010G19KT P6SM VCSH BKN028 BKN045=



000
FTUS41 KCTP 271254 AAA
TAFAOO
TAF AMD
KAOO 271254Z 2713/2812 VRB04KT 1 1/2SM BR OVC040
      TEMPO 2714/2716 31006KT 5SM BR OVC040
     FM271600 31008KT P6SM SCT025 OVC040
     FM280100 30010G19KT P6SM VCSH BKN028 BKN045=



000
FTUS41 KCTP 271254 AAA
TAFJST
TAF AMD
KJST 271254Z 2713/2812 31006KT 4SM BR BKN022 OVC035
     FM271500 30010KT 6SM -SHSN HZ BKN015 OVC025
     FM272000 29009G15KT 1 1/2SM -SN BKN008 OVC015
     FM280000 29013G24KT 1SM -SN BR OVC007=



000
FTUS41 KCTP 271139
TAFAOO
TAF
KAOO 271139Z 2712/2812 VRB04KT 4SM BR SCT009 OVC035
     FM271500 31008G15KT P6SM SCT025 OVC040
     FM280100 30010G19KT P6SM VCSH BKN028 BKN045=



000
FTUS41 KCTP 271139
TAFUNV
TAF
KUNV 271139Z 2712/2812 35003KT P6SM OVC035
     FM271400 30008G15KT P6SM SCT025 OVC040
     FM280100 30010G19KT P6SM VCSH BKN028 BKN045=



000
FTUS41 KCTP 271139
TAFMDT
TAF
KMDT 271139Z 2712/2812 31007KT P6SM SCT045 OVC070
     FM271400 32007KT P6SM BKN050 BKN110
     FM272100 29007KT P6SM BKN070=



000
FTUS41 KCTP 271139
TAFBFD
TAF
KBFD 271139Z 2712/2812 VRB05KT P6SM OVC011
     FM271500 32008KT P6SM -SHSN BKN014 OVC025
     FM272100 30010G18KT 1 1/2SM -SN BKN008 OVC015
     FM280000 28012G18KT 1SM -SN OVC008=



000
FTUS41 KCTP 271139
TAFIPT
TAF
KIPT 271139Z 2712/2812 26006KT P6SM -SN SCT030 OVC045
     FM271400 30007KT P6SM SCT030 OVC050
     FM280300 30010G19KT P6SM VCSH BKN028 BKN045=



000
FTUS41 KCTP 271139
TAFJST
TAF
KJST 271139Z 2712/2812 30005KT 4SM BR BKN003 OVC035
      TEMPO 2713/2715 32007KT 2SM -FZDZ BR BKN008 OVC015
     FM271500 30010KT P6SM -SHSN BKN015 OVC025
     FM272000 29009G15KT 1 1/2SM -SN BKN008 OVC015
     FM280000 29013G24KT 1SM -SN BR OVC007=



000
FTUS41 KCTP 271139
TAFUNV
TAF
KUNV 271139Z 2712/2812 35003KT P6SM OVC035
     FM271400 30008G15KT P6SM SCT025 OVC040
     FM280100 30010G19KT P6SM VCSH BKN028 BKN045=



000
FTUS41 KCTP 271139
TAFIPT
TAF
KIPT 271139Z 2712/2812 26006KT P6SM -SN SCT030 OVC045
     FM271400 30007KT P6SM SCT030 OVC050
     FM280300 30010G19KT P6SM VCSH BKN028 BKN045=



000
FTUS41 KCTP 271139
TAFMDT
TAF
KMDT 271139Z 2712/2812 31007KT P6SM SCT045 OVC070
     FM271400 32007KT P6SM BKN050 BKN110
     FM272100 29007KT P6SM BKN070=



000
FTUS41 KCTP 271139
TAFAOO
TAF
KAOO 271139Z 2712/2812 VRB04KT 4SM BR SCT009 OVC035
     FM271500 31008G15KT P6SM SCT025 OVC040
     FM280100 30010G19KT P6SM VCSH BKN028 BKN045=



000
FTUS41 KCTP 271139
TAFBFD
TAF
KBFD 271139Z 2712/2812 VRB05KT P6SM OVC011
     FM271500 32008KT P6SM -SHSN BKN014 OVC025
     FM272100 30010G18KT 1 1/2SM -SN BKN008 OVC015
     FM280000 28012G18KT 1SM -SN OVC008=



000
FTUS41 KCTP 271139
TAFJST
TAF
KJST 271139Z 2712/2812 30005KT 4SM BR BKN003 OVC035
      TEMPO 2713/2715 32007KT 2SM -FZDZ BR BKN008 OVC015
     FM271500 30010KT P6SM -SHSN BKN015 OVC025
     FM272000 29009G15KT 1 1/2SM -SN BKN008 OVC015
     FM280000 29013G24KT 1SM -SN BR OVC007=



000
FTUS41 KCTP 271130 AAJ
TAFJST
TAF AMD
KJST 271130Z 2712/2806 30006KT 4SM BR OVC002
      TEMPO 2713/2715 32007KT 2SM -FZDZ BR BKN008 OVC015
     FM271500 30010KT P6SM -SHSN BKN015 OVC025
     FM272000 29009G15KT 1 1/2SM -SN BKN008 OVC015
     FM280000 29013G24KT 1SM -SN BR OVC007=



000
FTUS41 KCTP 270940 AAF
TAFMDT
TAF AMD
KMDT 270940Z 2710/2806 30007KT P6SM SCT045 OVC070
     FM271400 32007KT P6SM BKN050 BKN110
     FM272100 29007KT P6SM BKN070=



000
FTUS41 KCTP 270940 AAD
TAFIPT
TAF AMD
KIPT 270940Z 2710/2806 27005KT P6SM -SN SCT035 OVC050
     FM271100 28006KT 3SM -SN OVC030
     FM271400 30005KT P6SM SCT028 OVC050
     FM280300 30010G19KT P6SM VCSH BKN028 BKN045=



000
FTUS41 KCTP 270940 AAE
TAFUNV
TAF AMD
KUNV 270940Z 2710/2806 35003KT P6SM OVC035
     FM271400 30008G15KT P6SM SCT025 OVC040
     FM280100 30010G19KT P6SM VCSH BKN028 BKN045=



000
FTUS41 KCTP 270940 AAH
TAFAOO
TAF AMD
KAOO 270940Z 2710/2806 VRB04KT 6SM BR BKN010 OVC050
     FM271400 31008G15KT P6SM SCT025 OVC040
     FM280100 30010G19KT P6SM VCSH BKN028 BKN045=



000
FTUS41 KCTP 270940 AAI
TAFJST
TAF AMD
KJST 270940Z 2710/2806 29006KT 1 1/2SM -FZDZ BR OVC002
      TEMPO 2713/2715 32007KT 4SM -SHSN BR BKN008 OVC015
     FM271500 30010KT P6SM -SHSN BKN015 OVC025
     FM272000 29009G15KT 1 1/2SM -SN BKN008 OVC015
     FM280000 29013G24KT 1SM -SN BR OVC007=



000
FTUS41 KCTP 270940 AAF
TAFBFD
TAF AMD
KBFD 270940Z 2710/2806 VRB05KT P6SM OVC015
     FM271500 32008KT P6SM -SHSN SCT013 OVC025
     FM272100 30010G18KT 1 1/2SM -SN BKN008 OVC015
     FM280000 28012G18KT 1SM -SN OVC008=



000
FTUS41 KCTP 270940 AAF
TAFMDT
TAF AMD
KMDT 270940Z 2710/2806 30007KT P6SM SCT045 OVC070
     FM271400 32007KT P6SM BKN050 BKN110
     FM272100 29007KT P6SM BKN070=



000
FTUS41 KCTP 270940 AAF
TAFBFD
TAF AMD
KBFD 270940Z 2710/2806 VRB05KT P6SM OVC015
     FM271500 32008KT P6SM -SHSN SCT013 OVC025
     FM272100 30010G18KT 1 1/2SM -SN BKN008 OVC015
     FM280000 28012G18KT 1SM -SN OVC008=



000
FTUS41 KCTP 270940 AAI
TAFJST
TAF AMD
KJST 270940Z 2710/2806 29006KT 1 1/2SM -FZDZ BR OVC002
      TEMPO 2713/2715 32007KT 4SM -SHSN BR BKN008 OVC015
     FM271500 30010KT P6SM -SHSN BKN015 OVC025
     FM272000 29009G15KT 1 1/2SM -SN BKN008 OVC015
     FM280000 29013G24KT 1SM -SN BR OVC007=



000
FTUS41 KCTP 270940 AAE
TAFUNV
TAF AMD
KUNV 270940Z 2710/2806 35003KT P6SM OVC035
     FM271400 30008G15KT P6SM SCT025 OVC040
     FM280100 30010G19KT P6SM VCSH BKN028 BKN045=



000
FTUS41 KCTP 270940 AAH
TAFAOO
TAF AMD
KAOO 270940Z 2710/2806 VRB04KT 6SM BR BKN010 OVC050
     FM271400 31008G15KT P6SM SCT025 OVC040
     FM280100 30010G19KT P6SM VCSH BKN028 BKN045=



000
FTUS41 KCTP 270940 AAD
TAFIPT
TAF AMD
KIPT 270940Z 2710/2806 27005KT P6SM -SN SCT035 OVC050
     FM271100 28006KT 3SM -SN OVC030
     FM271400 30005KT P6SM SCT028 OVC050
     FM280300 30010G19KT P6SM VCSH BKN028 BKN045=



000
FTUS41 KCTP 270928 AAH
TAFJST
TAF AMD
KJST 270928Z 2709/2806 29006KT 1 1/2SM -FZDZ BR OVC002
      TEMPO 2713/2715 32007KT 2SM -SHSN BR BKN008 OVC015
     FM271500 30010KT P6SM -SHSN BKN015 OVC025
     FM272100 29009G15KT 1 1/2SM -SN BKN008 OVC015=



000
FTUS41 KCTP 270856 AAG
TAFAOO
TAF AMD
KAOO 270856Z 2709/2806 VRB04KT 5SM BR BKN012 OVC050
     FM271400 31008G15KT P6SM SCT025 OVC040=



000
FTUS41 KCTP 270856 AAG
TAFAOO
TAF AMD
KAOO 270856Z 2709/2806 VRB04KT 5SM BR BKN012 OVC050
     FM271400 31008G15KT P6SM SCT025 OVC040=



000
FTUS41 KCTP 270855 AAG
TAFJST
TAF AMD
KJST 270855Z 2709/2806 29004KT 1/2SM FG OVC002
      TEMPO 2713/2715 32007KT 2SM -SHSN BR BKN008 OVC015
     FM271500 30010KT P6SM -SHSN BKN015 OVC025
     FM272100 29009G15KT 1 1/2SM -SN BKN008 OVC015=



000
FTUS41 KCTP 270830 AAE
TAFBFD
TAF AMD
KBFD 270830Z 2709/2806 VRB03KT P6SM OVC010
     FM271500 32008KT P6SM -SHSN SCT013 OVC025
     FM272100 30010G18KT 1 1/2SM -SN BKN008 OVC015=



000
FTUS41 KCTP 270830 AAE
TAFBFD
TAF AMD
KBFD 270830Z 2709/2806 VRB03KT P6SM OVC010
     FM271500 32008KT P6SM -SHSN SCT013 OVC025
     FM272100 30010G18KT 1 1/2SM -SN BKN008 OVC015=



000
FTUS41 KCTP 270829 AAF
TAFJST
TAF AMD
KJST 270829Z 2708/2806 31004KT 3SM BR OVC002
      TEMPO 2713/2715 32007KT 2SM -SHSN BR BKN008 OVC015
     FM271500 30010KT P6SM -SHSN BKN015 OVC025
     FM272100 29009G15KT 1 1/2SM -SN BKN008 OVC015=



000
FTUS41 KCTP 270829 AAF
TAFJST
TAF AMD
KJST 270829Z 2708/2806 31004KT 3SM BR OVC002
      TEMPO 2713/2715 32007KT 2SM -SHSN BR BKN008 OVC015
     FM271500 30010KT P6SM -SHSN BKN015 OVC025
     FM272100 29009G15KT 1 1/2SM -SN BKN008 OVC015=



000
FTUS41 KCTP 270827 AAF
TAFAOO
TAF AMD
KAOO 270827Z 2708/2806 03006KT 5SM BR SCT040 OVC050
     FM271400 31008G15KT P6SM SCT025 OVC040=



000
FTUS41 KCTP 270814 AAD
TAFBFD
TAF AMD
KBFD 270814Z 2708/2806 VRB03KT P6SM OVC009
     FM271500 32008KT P6SM -SHSN SCT013 OVC025
     FM272100 30010G18KT 1 1/2SM -SN BKN008 OVC015=



000
FTUS41 KCTP 270759 AAE
TAFAOO
TAF AMD
KAOO 270759Z 2708/2806 34003KT 4SM BR BKN008 OVC013
     FM271400 31008G15KT P6SM SCT025 OVC040=



000
FTUS41 KCTP 270759 AAE
TAFAOO
TAF AMD
KAOO 270759Z 2708/2806 34003KT 4SM BR BKN008 OVC013
     FM271400 31008G15KT P6SM SCT025 OVC040=



000
FTUS41 KCTP 270758 AAE
TAFJST
TAF AMD
KJST 270758Z 2708/2806 31005KT 3/4SM BR VV002
      TEMPO 2713/2715 3SM -SHSN BR BKN008 OVC015
     FM271500 30010KT P6SM -SHSN BKN015 OVC025
     FM272100 29009G15KT 1 1/2SM -SN BKN008 OVC015=



000
FTUS41 KCTP 270758 AAE
TAFJST
TAF AMD
KJST 270758Z 2708/2806 31005KT 3/4SM BR VV002
      TEMPO 2713/2715 3SM -SHSN BR BKN008 OVC015
     FM271500 30010KT P6SM -SHSN BKN015 OVC025
     FM272100 29009G15KT 1 1/2SM -SN BKN008 OVC015=



000
FTUS41 KCTP 270540 AAC
TAFIPT
TAF AMD
KIPT 270540Z 2706/2724 27005KT P6SM -SN SCT027 OVC050
     FM271400 30005KT P6SM OVC050=



000
FTUS41 KCTP 270540 AAD
TAFJST
TAF AMD
KJST 270540Z 2706/2724 31005KT 1/4SM FZFG OVC002
      TEMPO 2713/2715 3SM -SHSN BR BKN008 OVC015
     FM271500 30010KT P6SM -SHSN BKN015 OVC025
     FM272100 29009G15KT 1 1/2SM -SN BKN008 OVC015=



000
FTUS41 KCTP 270540 AAD
TAFAOO
TAF AMD
KAOO 270540Z 2706/2724 34003KT P6SM SCT025 OVC050
     FM271400 31008G15KT P6SM SCT025 OVC040=



000
FTUS41 KCTP 270540 AAE
TAFMDT
TAF AMD
KMDT 270540Z 2706/2724 32005KT P6SM SCT025 OVC090
     FM271400 32005KT P6SM BKN050 BKN110=



000
FTUS41 KCTP 270540 AAD
TAFUNV
TAF AMD
KUNV 270540Z 2706/2724 35003KT P6SM OVC035
     FM271400 30008G15KT P6SM SCT025 OVC040=



000
FTUS41 KCTP 270540 AAC
TAFBFD
TAF AMD
KBFD 270540Z 2706/2724 34004KT 3SM -SN OVC011
     FM271500 31008KT P6SM OVC025
     FM272100 29009G15KT 1 1/2SM -SN BKN008 OVC015=



000
FTUS41 KCTP 270540 AAC
TAFBFD
TAF AMD
KBFD 270540Z 2706/2724 34004KT 3SM -SN OVC011
     FM271500 31008KT P6SM OVC025
     FM272100 29009G15KT 1 1/2SM -SN BKN008 OVC015=



000
FTUS41 KCTP 270540 AAD
TAFAOO
TAF AMD
KAOO 270540Z 2706/2724 34003KT P6SM SCT025 OVC050
     FM271400 31008G15KT P6SM SCT025 OVC040=



000
FTUS41 KCTP 270540 AAD
TAFJST
TAF AMD
KJST 270540Z 2706/2724 31005KT 1/4SM FZFG OVC002
      TEMPO 2713/2715 3SM -SHSN BR BKN008 OVC015
     FM271500 30010KT P6SM -SHSN BKN015 OVC025
     FM272100 29009G15KT 1 1/2SM -SN BKN008 OVC015=



000
FTUS41 KCTP 270540 AAC
TAFIPT
TAF AMD
KIPT 270540Z 2706/2724 27005KT P6SM -SN SCT027 OVC050
     FM271400 30005KT P6SM OVC050=



000
FTUS41 KCTP 270540 AAD
TAFUNV
TAF AMD
KUNV 270540Z 2706/2724 35003KT P6SM OVC035
     FM271400 30008G15KT P6SM SCT025 OVC040=



000
FTUS41 KCTP 270540 AAE
TAFMDT
TAF AMD
KMDT 270540Z 2706/2724 32005KT P6SM SCT025 OVC090
     FM271400 32005KT P6SM BKN050 BKN110=



000
FTUS41 KCTP 270309 AAB
TAFIPT
TAF AMD
KIPT 270309Z 2703/2724 27005KT P6SM OVC025
     FM271400 30005KT P6SM OVC050=



000
FTUS41 KCTP 270309 AAC
TAFUNV
TAF AMD
KUNV 270309Z 2703/2724 35003KT P6SM OVC025
     FM271400 30005KT P6SM OVC050=



000
FTUS41 KCTP 270309 AAB
TAFBFD
TAF AMD
KBFD 270309Z 2703/2724 34004KT 3SM -SN OVC007
     FM271500 31008KT P6SM OVC025=



000
FTUS41 KCTP 270309 AAC
TAFAOO
TAF AMD
KAOO 270309Z 2703/2724 34003KT 5SM BR OVC015
     FM271400 31008KT P6SM OVC050=



000
FTUS41 KCTP 270309 AAD
TAFMDT
TAF AMD
KMDT 270309Z 2703/2724 32005KT P6SM OVC025
     FM271400 32005KT P6SM OVC050=



000
FTUS41 KCTP 270309 AAC
TAFJST
TAF AMD
KJST 270309Z 2703/2724 31005KT 1/2SM FZFG OVC002
     FM271500 30010KT P6SM OVC025=



000
FTUS41 KCTP 270309 AAD
TAFMDT
TAF AMD
KMDT 270309Z 2703/2724 32005KT P6SM OVC025
     FM271400 32005KT P6SM OVC050=



000
FTUS41 KCTP 270309 AAB
TAFBFD
TAF AMD
KBFD 270309Z 2703/2724 34004KT 3SM -SN OVC007
     FM271500 31008KT P6SM OVC025=



000
FTUS41 KCTP 270309 AAC
TAFJST
TAF AMD
KJST 270309Z 2703/2724 31005KT 1/2SM FZFG OVC002
     FM271500 30010KT P6SM OVC025=



000
FTUS41 KCTP 270309 AAC
TAFAOO
TAF AMD
KAOO 270309Z 2703/2724 34003KT 5SM BR OVC015
     FM271400 31008KT P6SM OVC050=



000
FTUS41 KCTP 270309 AAC
TAFUNV
TAF AMD
KUNV 270309Z 2703/2724 35003KT P6SM OVC025
     FM271400 30005KT P6SM OVC050=



000
FTUS41 KCTP 270309 AAB
TAFIPT
TAF AMD
KIPT 270309Z 2703/2724 27005KT P6SM OVC025
     FM271400 30005KT P6SM OVC050=



000
FTUS41 KCTP 270003 RRA
TAFMDT
TAF
KMDT 270003Z 2700/2724 31010KT 5SM -SN OVC015
     FM270200 30005KT 5SM BR OVC025
     FM271400 32005KT P6SM OVC050=



000
FTUS41 KCTP 270003 RRA
TAFBFD
TAF
KBFD 270003Z 2700/2724 03005KT 3SM -SN OVC005
     FM271500 31008KT P6SM OVC025=



000
FTUS41 KCTP 270003 RRA
TAFJST
TAF
KJST 270003Z 2700/2724 35005KT 1 1/2SM -SN OVC002
     FM271500 30010KT P6SM OVC025=



000
FTUS41 KCTP 270003 RRA
TAFUNV
TAF
KUNV 270003Z 2700/2724 03005KT 3SM -SN OVC015
     FM270300 33003KT 4SM BR OVC025
     FM271400 30005KT P6SM OVC050=



000
FTUS41 KCTP 270003 RRA
TAFIPT
TAF
KIPT 270003Z 2700/2724 26005KT 5SM -SN OVC025
     FM270300 29004KT 5SM BR OVC025
     FM271400 30005KT P6SM OVC050=



000
FTUS41 KCTP 270003 RRA
TAFAOO
TAF
KAOO 270003Z 2700/2724 36005KT 3SM -SN OVC010
     FM270300 33003KT 4SM BR OVC025
     FM271400 31008KT P6SM OVC050=



000
FTUS41 KCTP 262137 AAA
TAFIPT
TAF AMD
KIPT 262137Z 2622/2718 VRB03KT 1/2SM SN BKN004 OVC009
     FM262330 31005KT 3SM -SN BR OVC010
     FM270600 30004KT P6SM BKN050=



000
FTUS41 KCTP 262137 AAA
TAFIPT
TAF AMD
KIPT 262137Z 2622/2718 VRB03KT 1/2SM SN BKN004 OVC009
     FM262330 31005KT 3SM -SN BR OVC010
     FM270600 30004KT P6SM BKN050=



000
FTUS41 KCTP 262137 AAB
TAFAOO
TAF AMD
KAOO 262137Z 2622/2718 01007KT 1SM -SN BR SCT005 OVC009
     FM262300 34005KT 4SM -SN BR OVC015
     FM270600 30004KT P6SM VCSH BKN025 OVC050=



000
FTUS41 KCTP 262137 AAB
TAFJST
TAF AMD
KJST 262137Z 2622/2718 35007KT 1SM -SN BR BKN004 OVC012
     FM262300 32005KT 3SM -SHSN BR OVC004
     FM270600 30004KT P6SM VCSH BKN025 OVC050=



000
FTUS41 KCTP 262137 AAC
TAFMDT
TAF AMD
KMDT 262137Z 2622/2718 31008KT 2SM -SN BR SCT004 OVC018
     FM262300 31010KT 3SM -SN BR OVC020
     FM270300 32006KT P6SM OVC020
     FM270600 31004KT P6SM SCT040=



000
FTUS41 KCTP 262137 AAB
TAFUNV
TAF AMD
KUNV 262137Z 2622/2718 04005KT 3/4SM -SN BR OVC004
     FM262300 34005KT 3SM -SN BR OVC010
     FM270600 27002KT 4SM BR OVC015=



000
FTUS41 KCTP 262137 AAA
TAFBFD
TAF AMD
KBFD 262137Z 2622/2718 35005KT 1SM -SN BR SCT008 OVC025
     FM270100 35004KT 6SM BR OVC025=



000
FTUS41 KCTP 262137 AAC
TAFMDT
TAF AMD
KMDT 262137Z 2622/2718 31008KT 2SM -SN BR SCT004 OVC018
     FM262300 31010KT 3SM -SN BR OVC020
     FM270300 32006KT P6SM OVC020
     FM270600 31004KT P6SM SCT040=



000
FTUS41 KCTP 262137 AAB
TAFUNV
TAF AMD
KUNV 262137Z 2622/2718 04005KT 3/4SM -SN BR OVC004
     FM262300 34005KT 3SM -SN BR OVC010
     FM270600 27002KT 4SM BR OVC015=



000
FTUS41 KCTP 262137 AAB
TAFAOO
TAF AMD
KAOO 262137Z 2622/2718 01007KT 1SM -SN BR SCT005 OVC009
     FM262300 34005KT 4SM -SN BR OVC015
     FM270600 30004KT P6SM VCSH BKN025 OVC050=



000
FTUS41 KCTP 262137 AAB
TAFJST
TAF AMD
KJST 262137Z 2622/2718 35007KT 1SM -SN BR BKN004 OVC012
     FM262300 32005KT 3SM -SHSN BR OVC004
     FM270600 30004KT P6SM VCSH BKN025 OVC050=



000
FTUS41 KCTP 262137 AAA
TAFBFD
TAF AMD
KBFD 262137Z 2622/2718 35005KT 1SM -SN BR SCT008 OVC025
     FM270100 35004KT 6SM BR OVC025=



000
FTUS41 KCTP 262052 AAB
TAFMDT
TAF AMD
KMDT 262052Z 2621/2718 31008KT 1SM -SN BR SCT004 OVC018
      TEMPO 2621/2623 4SM -SN BR OVC009
     FM262300 31010KT 3SM -SN OVC015
     FM270300 32006KT P6SM OVC020
     FM270600 31004KT P6SM SCT040=



000
FTUS41 KCTP 262052 AAB
TAFMDT
TAF AMD
KMDT 262052Z 2621/2718 31008KT 1SM -SN BR SCT004 OVC018
      TEMPO 2621/2623 4SM -SN BR OVC009
     FM262300 31010KT 3SM -SN OVC015
     FM270300 32006KT P6SM OVC020
     FM270600 31004KT P6SM SCT040=



000
FTUS41 KCTP 262050 AAA
TAFUNV
TAF AMD
KUNV 262050Z 2621/2718 03005KT 3/4SM -SN OVC005
      TEMPO 2621/2622 1/2SM SN OVC004
     FM262300 32005KT 3SM -SN OVC010
     FM270600 27002KT 4SM BR OVC015=



000
FTUS41 KCTP 262049 AAA
TAFAOO
TAF AMD
KAOO 262049Z 2621/2718 02007KT 1SM -SN SCT005 OVC009
     FM262300 34005KT 4SM -SN OVC015
     FM270600 30004KT P6SM VCSH BKN025 OVC050=



000
FTUS41 KCTP 262049 AAA
TAFAOO
TAF AMD
KAOO 262049Z 2621/2718 02007KT 1SM -SN SCT005 OVC009
     FM262300 34005KT 4SM -SN OVC015
     FM270600 30004KT P6SM VCSH BKN025 OVC050=



000
FTUS41 KCTP 262048 AAA
TAFJST
TAF AMD
KJST 262048Z 2621/2718 VRB04KT 1SM -SN BR SCT005 OVC012
     FM262300 32005KT 3SM -SHSN BR OVC004
     FM270600 30004KT P6SM VCSH BKN025 OVC050=



000
FTUS41 KCTP 261953 AAA
TAFMDT
TAF AMD
KMDT 261953Z 2620/2718 31006KT 3SM -SN OVC005
      TEMPO 2620/2623 1SM -SN OVC009
     FM262300 31010KT 3SM -SN OVC015
     FM270300 32006KT P6SM OVC020
     FM270600 31004KT P6SM SCT040=



000
FTUS41 KCTP 261748
TAFUNV
TAF
KUNV 261748Z 2618/2718 03005KT 3/4SM -SN OVC003
      TEMPO 2618/2622 1/2SM SN OVC001
     FM262300 32005KT 3SM -SN OVC010
     FM270600 27002KT 4SM BR OVC015=



000
FTUS41 KCTP 261748
TAFAOO
TAF
KAOO 261748Z 2618/2718 02007KT 1/2SM SN OVC009
      TEMPO 2618/2622 1/4SM +SN OVC003
     FM262300 34005KT 4SM -SN OVC015
     FM270600 30004KT P6SM VCSH BKN025 OVC050=



000
FTUS41 KCTP 261748
TAFJST
TAF
KJST 261748Z 2618/2718 VRB04KT 1/2SM SN SCT003 OVC009
      TEMPO 2618/2622 1/4SM +SN OVC003
     FM262300 32005KT 3SM -SHSN OVC004
     FM270600 30004KT P6SM VCSH BKN025 OVC050=



000
FTUS41 KCTP 261748
TAFBFD
TAF
KBFD 261748Z 2618/2718 09005KT 3/4SM -SN BKN008 OVC015
      TEMPO 2618/2622 1/2SM SN OVC003
     FM262200 VRB04KT 2SM -SN OVC015
     FM270100 35004KT 6SM BR OVC025=



000
FTUS41 KCTP 261748
TAFMDT
TAF
KMDT 261748Z 2618/2718 00000KT 3/4SM -SN OVC004
      TEMPO 2618/2622 1/2SM SN OVC001
     FM262300 31010KT 3SM -SN OVC015
     FM270300 32006KT P6SM OVC020
     FM270600 31004KT P6SM SCT040=



000
FTUS41 KCTP 261748
TAFIPT
TAF
KIPT 261748Z 2618/2718 VRB03KT 3/4SM -SN BR SCT005 OVC010
      TEMPO 2618/2622 1/4SM +SN OVC003
     FM262300 31005KT 4SM -SN OVC010
     FM270600 30004KT P6SM BKN050=



000
FTUS41 KCTP 261748
TAFIPT
TAF
KIPT 261748Z 2618/2718 VRB03KT 3/4SM -SN BR SCT005 OVC010
      TEMPO 2618/2622 1/4SM +SN OVC003
     FM262300 31005KT 4SM -SN OVC010
     FM270600 30004KT P6SM BKN050=



000
FTUS41 KCTP 261748
TAFUNV
TAF
KUNV 261748Z 2618/2718 03005KT 3/4SM -SN OVC003
      TEMPO 2618/2622 1/2SM SN OVC001
     FM262300 32005KT 3SM -SN OVC010
     FM270600 27002KT 4SM BR OVC015=



000
FTUS41 KCTP 261748
TAFBFD
TAF
KBFD 261748Z 2618/2718 09005KT 3/4SM -SN BKN008 OVC015
      TEMPO 2618/2622 1/2SM SN OVC003
     FM262200 VRB04KT 2SM -SN OVC015
     FM270100 35004KT 6SM BR OVC025=



000
FTUS41 KCTP 261748
TAFJST
TAF
KJST 261748Z 2618/2718 VRB04KT 1/2SM SN SCT003 OVC009
      TEMPO 2618/2622 1/4SM +SN OVC003
     FM262300 32005KT 3SM -SHSN OVC004
     FM270600 30004KT P6SM VCSH BKN025 OVC050=



000
FTUS41 KCTP 261748
TAFMDT
TAF
KMDT 261748Z 2618/2718 00000KT 3/4SM -SN OVC004
      TEMPO 2618/2622 1/2SM SN OVC001
     FM262300 31010KT 3SM -SN OVC015
     FM270300 32006KT P6SM OVC020
     FM270600 31004KT P6SM SCT040=



000
FTUS41 KCTP 261748
TAFAOO
TAF
KAOO 261748Z 2618/2718 02007KT 1/2SM SN OVC009
      TEMPO 2618/2622 1/4SM +SN OVC003
     FM262300 34005KT 4SM -SN OVC015
     FM270600 30004KT P6SM VCSH BKN025 OVC050=



000
FTUS41 KCTP 261520 AAC
TAFAOO
TAF AMD
KAOO 261520Z 2615/2712 06004KT 1/2SM SN OVC009
      TEMPO 2615/2619 1/4SM +SN OVC004
     FM262300 34005KT 4SM -SN OVC015
     FM270600 30004KT P6SM VCSH BKN025 OVC050=



000
FTUS41 KCTP 261520 AAB
TAFMDT
TAF AMD
KMDT 261520Z 2615/2712 00000KT 3/4SM -SN OVC007
      TEMPO 2615/2618 1/2SM SN OVC003
     FM262300 31010KT 3SM -SN OVC015
     FM270300 32006KT P6SM OVC020
     FM270600 31004KT P6SM SCT040=



000
FTUS41 KCTP 261520 AAA
TAFIPT
TAF AMD
KIPT 261520Z 2615/2712 30003KT 3/4SM -SN BR OVC012
      TEMPO 2615/2619 1/4SM +SN OVC004
     FM261900 36005KT 1SM -SN OVC005
     FM262300 31005KT 4SM -SN OVC010
     FM270600 30004KT P6SM BKN050=



000
FTUS41 KCTP 261520 AAA
TAFUNV
TAF AMD
KUNV 261520Z 2615/2712 VRB03KT 1SM -SN OVC012
      TEMPO 2615/2619 1/2SM SN OVC003
     FM261900 02005KT 1SM -SN OVC005
     FM262300 32005KT 3SM -SN OVC010
     FM270600 27002KT 4SM BR OVC015=



000
FTUS41 KCTP 261520 AAB
TAFJST
TAF AMD
KJST 261520Z 2615/2712 VRB03KT 1/2SM SN SCT003 OVC009
      TEMPO 2615/2618 1/4SM +SN OVC003
     FM261800 04005KT 1SM -SN OVC005
     FM262300 32005KT 3SM -SHSN OVC004=



000
FTUS41 KCTP 261520 AAA
TAFBFD
TAF AMD
KBFD 261520Z 2615/2712 07005KT P6SM OVC012
     FM261800 26005KT 5SM -SN OVC010
     FM262300 36005KT 4SM -SHSN OVC009=



000
FTUS41 KCTP 261412 AAB
TAFAOO
TAF AMD
KAOO 261412Z 2614/2712 03005KT 1/2SM SN OVC015
      TEMPO 2614/2618 1SM -SN OVC005
     FM262300 34005KT 4SM -SN OVC015
     FM270600 30004KT P6SM VCSH BKN025 OVC050=



000
FTUS41 KCTP 261412 AAB
TAFAOO
TAF AMD
KAOO 261412Z 2614/2712 03005KT 1/2SM SN OVC015
      TEMPO 2614/2618 1SM -SN OVC005
     FM262300 34005KT 4SM -SN OVC015
     FM270600 30004KT P6SM VCSH BKN025 OVC050=



000
FTUS41 KCTP 261258 AAA
TAFAOO
TAF AMD
KAOO 261258Z 2613/2712 00000KT 1 1/2SM -SN BR OVC024
     FM261400 01005KT 1SM -SN OVC005
     FM262300 34005KT 4SM -SN OVC015
     FM270600 30004KT P6SM VCSH BKN025 OVC050=



000
FTUS41 KCTP 261258 AAA
TAFAOO
TAF AMD
KAOO 261258Z 2613/2712 00000KT 1 1/2SM -SN BR OVC024
     FM261400 01005KT 1SM -SN OVC005
     FM262300 34005KT 4SM -SN OVC015
     FM270600 30004KT P6SM VCSH BKN025 OVC050=



000
FTUS41 KCTP 261257 AAA
TAFJST
TAF AMD
KJST 261257Z 2613/2712 11003KT 1SM -SN OVC022
     FM261500 03005KT 1SM -SN OVC010
     FM261800 04005KT 1SM -SN OVC005
     FM262300 32005KT 3SM -SHSN OVC004=



000
FTUS41 KCTP 261257 AAA
TAFJST
TAF AMD
KJST 261257Z 2613/2712 11003KT 1SM -SN OVC022
     FM261500 03005KT 1SM -SN OVC010
     FM261800 04005KT 1SM -SN OVC005
     FM262300 32005KT 3SM -SHSN OVC004=



000
FTUS41 KCTP 261231 AAA
TAFMDT
TAF AMD
KMDT 261231Z 2613/2712 09003KT P6SM -RA OVC029
     FM261400 35010KT 1/2SM SN OVC003
     FM262300 31010KT 3SM -SN OVC015
     FM270300 32006KT P6SM OVC020
     FM270600 31004KT P6SM SCT040=



000
FTUS41 KCTP 261231 AAA
TAFMDT
TAF AMD
KMDT 261231Z 2613/2712 09003KT P6SM -RA OVC029
     FM261400 35010KT 1/2SM SN OVC003
     FM262300 31010KT 3SM -SN OVC015
     FM270300 32006KT P6SM OVC020
     FM270600 31004KT P6SM SCT040=



000
FTUS41 KCTP 261143
TAFIPT
TAF
KIPT 261143Z 2612/2712 30003KT P6SM SKC
     FM261300 02005KT 2SM -SN OVC010
     FM261500 36005KT 1SM -SN OVC005
     FM262300 31005KT 4SM -SN OVC010
     FM270600 30004KT P6SM BKN050=



000
FTUS41 KCTP 261143
TAFUNV
TAF
KUNV 261143Z 2612/2712 36003KT P6SM BKN120
     FM261300 03005KT 2SM -SN OVC010
     FM261500 02005KT 1SM -SN OVC005
     FM262300 32005KT 3SM -SN OVC010
     FM270600 27002KT 4SM BR OVC015=



000
FTUS41 KCTP 261143
TAFMDT
TAF
KMDT 261143Z 2612/2712 33003KT P6SM OVC110
     FM261200 02008KT 1SM -SN OVC005
     FM261400 35010KT 1/2SM SN OVC003
     FM262300 31010KT 3SM -SN OVC015
     FM270300 32006KT P6SM OVC020
     FM270600 31004KT P6SM SCT040=



000
FTUS41 KCTP 261143
TAFUNV
TAF
KUNV 261143Z 2612/2712 36003KT P6SM BKN120
     FM261300 03005KT 2SM -SN OVC010
     FM261500 02005KT 1SM -SN OVC005
     FM262300 32005KT 3SM -SN OVC010
     FM270600 27002KT 4SM BR OVC015=



000
FTUS41 KCTP 261143
TAFAOO
TAF
KAOO 261143Z 2612/2712 06003KT P6SM SCT120
     FM261300 01005KT 1SM -SN OVC005
     FM262300 34005KT 4SM -SN OVC015
     FM270600 30004KT P6SM VCSH BKN025 OVC050=



000
FTUS41 KCTP 261143
TAFAOO
TAF
KAOO 261143Z 2612/2712 06003KT P6SM SCT120
     FM261300 01005KT 1SM -SN OVC005
     FM262300 34005KT 4SM -SN OVC015
     FM270600 30004KT P6SM VCSH BKN025 OVC050=



000
FTUS41 KCTP 261143
TAFMDT
TAF
KMDT 261143Z 2612/2712 33003KT P6SM OVC110
     FM261200 02008KT 1SM -SN OVC005
     FM261400 35010KT 1/2SM SN OVC003
     FM262300 31010KT 3SM -SN OVC015
     FM270300 32006KT P6SM OVC020
     FM270600 31004KT P6SM SCT040=



000
FTUS41 KCTP 261143
TAFJST
TAF
KJST 261143Z 2612/2712 06007KT P6SM SCT120
     FM261500 03005KT 2SM -SN OVC010
     FM261800 04005KT 1SM -SN OVC005
     FM262300 32005KT 3SM -SHSN OVC004=



000
FTUS41 KCTP 261143
TAFIPT
TAF
KIPT 261143Z 2612/2712 30003KT P6SM SKC
     FM261300 02005KT 2SM -SN OVC010
     FM261500 36005KT 1SM -SN OVC005
     FM262300 31005KT 4SM -SN OVC010
     FM270600 30004KT P6SM BKN050=



000
FTUS41 KCTP 261143
TAFJST
TAF
KJST 261143Z 2612/2712 06007KT P6SM SCT120
     FM261500 03005KT 2SM -SN OVC010
     FM261800 04005KT 1SM -SN OVC005
     FM262300 32005KT 3SM -SHSN OVC004=



000
FTUS41 KCTP 261143
TAFBFD
TAF
KBFD 261143Z 2612/2712 00000KT P6SM OVC015
     FM261400 07005KT 2SM -SN OVC010
     FM262300 36005KT 4SM -SHSN OVC009=



000
FTUS41 KCTP 261143
TAFBFD
TAF
KBFD 261143Z 2612/2712 00000KT P6SM OVC015
     FM261400 07005KT 2SM -SN OVC010
     FM262300 36005KT 4SM -SHSN OVC009=



000
FTUS41 KCTP 260921 AAA
TAFJST
TAF AMD
KJST 260921Z 2609/2706 06007KT P6SM SCT120
     FM261100 03005KT 2SM -SN OVC010
     FM261400 04005KT 1SM -SN OVC005
     FM262100 32005KT 3SM -SHSN OVC004=



000
FTUS41 KCTP 260921 AAA
TAFAOO
TAF AMD
KAOO 260921Z 2609/2706 06003KT P6SM SCT120
     FM261200 01005KT 1SM -SN OVC005
     FM262200 32005KT 6SM -SN OVC015=



000
FTUS41 KCTP 260921 AAA
TAFMDT
TAF AMD
KMDT 260921Z 2609/2706 33003KT P6SM OVC110
     FM261200 02008KT 1SM -SN OVC005
     FM261400 35010KT 1/2SM SN OVC003
     FM262300 31010KT 3SM -SN OVC015
     FM270300 32006KT P6SM OVC020=



000
FTUS41 KCTP 260921 AAA
TAFIPT
TAF AMD
KIPT 260921Z 2609/2706 30003KT P6SM SKC
     FM261300 02005KT 2SM -SN OVC010
     FM261500 36005KT 1SM -SN OVC005
     FM262300 31005KT 4SM -SN OVC010=



000
FTUS41 KCTP 260921 AAA
TAFUNV
TAF AMD
KUNV 260921Z 2609/2706 36003KT P6SM BKN120
     FM261300 03005KT 2SM -SN OVC010
     FM261500 02005KT 1SM -SN OVC005
     FM262300 32005KT 5SM -SN OVC010=



000
FTUS41 KCTP 260921 AAA
TAFBFD
TAF AMD
KBFD 260921Z 2609/2706 00000KT P6SM OVC015
     FM261400 07005KT 2SM -SN OVC010
     FM262100 36005KT 4SM -SHSN OVC009=



000
FTUS41 KCTP 260541
TAFMDT
TAF
KMDT 260541Z 2606/2706 35004KT P6SM OVC170
     FM260900 35005KT 3SM -RASN OVC015
     FM261100 02008KT 1SM -SN OVC005
     FM261300 35010KT 1/2SM SN OVC003
     FM262300 31010KT 3SM -SN OVC015
     FM270300 32006KT P6SM OVC020=



000
FTUS41 KCTP 260541
TAFBFD
TAF
KBFD 260541Z 2606/2706 30005KT P6SM OVC020
     FM261400 07005KT 2SM -SN OVC010
     FM262100 36005KT 4SM -SHSN OVC009=



000
FTUS41 KCTP 260541
TAFJST
TAF
KJST 260541Z 2606/2706 02003KT P6SM SKC
     FM260900 03005KT 2SM -SN OVC010
     FM261200 04005KT 1SM -SN OVC005
     FM262100 32005KT 3SM -SHSN OVC004=



000
FTUS41 KCTP 260541
TAFAOO
TAF
KAOO 260541Z 2606/2706 00000KT P6SM SKC
     FM260900 03005KT 2SM -SN OVC010
     FM261200 01005KT 1SM -SN OVC005
     FM262200 32005KT 6SM -SN OVC015=



000
FTUS41 KCTP 260541
TAFUNV
TAF
KUNV 260541Z 2606/2706 00000KT P6SM SKC
     FM261000 03005KT 2SM -SN OVC010
     FM261300 02005KT 1SM -SN OVC005
     FM262300 32005KT 5SM -SN OVC010=



000
FTUS41 KCTP 260541
TAFIPT
TAF
KIPT 260541Z 2606/2706 00000KT P6SM SKC
     FM261100 02005KT 2SM -SN OVC010
     FM261400 36005KT 1SM -SN OVC005
     FM262300 31005KT 4SM -SN OVC010=



000
FTUS41 KCTP 260541
TAFUNV
TAF
KUNV 260541Z 2606/2706 00000KT P6SM SKC
     FM261000 03005KT 2SM -SN OVC010
     FM261300 02005KT 1SM -SN OVC005
     FM262300 32005KT 5SM -SN OVC010=



000
FTUS41 KCTP 260541
TAFBFD
TAF
KBFD 260541Z 2606/2706 30005KT P6SM OVC020
     FM261400 07005KT 2SM -SN OVC010
     FM262100 36005KT 4SM -SHSN OVC009=



000
FTUS41 KCTP 260541
TAFMDT
TAF
KMDT 260541Z 2606/2706 35004KT P6SM OVC170
     FM260900 35005KT 3SM -RASN OVC015
     FM261100 02008KT 1SM -SN OVC005
     FM261300 35010KT 1/2SM SN OVC003
     FM262300 31010KT 3SM -SN OVC015
     FM270300 32006KT P6SM OVC020=



000
FTUS41 KCTP 260541
TAFIPT
TAF
KIPT 260541Z 2606/2706 00000KT P6SM SKC
     FM261100 02005KT 2SM -SN OVC010
     FM261400 36005KT 1SM -SN OVC005
     FM262300 31005KT 4SM -SN OVC010=



000
FTUS41 KCTP 260541
TAFAOO
TAF
KAOO 260541Z 2606/2706 00000KT P6SM SKC
     FM260900 03005KT 2SM -SN OVC010
     FM261200 01005KT 1SM -SN OVC005
     FM262200 32005KT 6SM -SN OVC015=



000
FTUS41 KCTP 260541
TAFJST
TAF
KJST 260541Z 2606/2706 02003KT P6SM SKC
     FM260900 03005KT 2SM -SN OVC010
     FM261200 04005KT 1SM -SN OVC005
     FM262100 32005KT 3SM -SHSN OVC004=



000
FTUS41 KCTP 260459 AAB
TAFBFD
TAF AMD
KBFD 260459Z 2605/2624 33005KT P6SM BKN020
     FM261400 07005KT 2SM -SN OVC010
     FM262100 36005KT 4SM -SHSN OVC009=



000
FTUS41 KCTP 260459 AAB
TAFBFD
TAF AMD
KBFD 260459Z 2605/2624 33005KT P6SM BKN020
     FM261400 07005KT 2SM -SN OVC010
     FM262100 36005KT 4SM -SHSN OVC009=



000
FTUS41 KCTP 260338 AAA
TAFMDT
TAF AMD
KMDT 260338Z 2604/2624 VRB03KT P6SM OVC200
     FM260900 35005KT 3SM -RASN OVC015
     FM261100 02008KT 1SM -SN OVC005
     FM261300 35010KT 1/2SM SN OVC003
     FM262300 31010KT 3SM -SN OVC015=



000
FTUS41 KCTP 260338 AAA
TAFUNV
TAF AMD
KUNV 260338Z 2604/2624 35003KT P6SM OVC200
     FM261000 03005KT 2SM -SN OVC010
     FM261300 02005KT 1SM -SN OVC005
     FM262300 32005KT 5SM -SN OVC010=



000
FTUS41 KCTP 260338 AAA
TAFBFD
TAF AMD
KBFD 260338Z 2604/2624 33004KT P6SM SCT025
     FM261400 07005KT 2SM -SN OVC010
     FM262100 36005KT 4SM -SHSN OVC009=



000
FTUS41 KCTP 260338 AAA
TAFJST
TAF AMD
KJST 260338Z 2604/2624 34005KT P6SM OVC150
     FM260900 03005KT 2SM -SN OVC010
     FM261200 04005KT 1SM -SN OVC005
     FM262100 32005KT 3SM -SHSN OVC004=



000
FTUS41 KCTP 260338 AAA
TAFAOO
TAF AMD
KAOO 260338Z 2604/2624 35004KT P6SM OVC200
     FM260900 03005KT 2SM -SN OVC010
     FM261200 01005KT 1SM -SN OVC005
     FM262200 32005KT 6SM -SN OVC015=



000
FTUS41 KCTP 260338 AAA
TAFUNV
TAF AMD
KUNV 260338Z 2604/2624 35003KT P6SM OVC200
     FM261000 03005KT 2SM -SN OVC010
     FM261300 02005KT 1SM -SN OVC005
     FM262300 32005KT 5SM -SN OVC010=



000
FTUS41 KCTP 260338 AAA
TAFIPT
TAF AMD
KIPT 260338Z 2604/2624 36003KT P6SM OVC200
     FM261100 02005KT 2SM -SN OVC010
     FM261400 36005KT 1SM -SN OVC005
     FM262300 31005KT 4SM -SN OVC010=



000
FTUS41 KCTP 260338 AAA
TAFIPT
TAF AMD
KIPT 260338Z 2604/2624 36003KT P6SM OVC200
     FM261100 02005KT 2SM -SN OVC010
     FM261400 36005KT 1SM -SN OVC005
     FM262300 31005KT 4SM -SN OVC010=



000
FTUS41 KCTP 260338 AAA
TAFJST
TAF AMD
KJST 260338Z 2604/2624 34005KT P6SM OVC150
     FM260900 03005KT 2SM -SN OVC010
     FM261200 04005KT 1SM -SN OVC005
     FM262100 32005KT 3SM -SHSN OVC004=



000
FTUS41 KCTP 260338 AAA
TAFBFD
TAF AMD
KBFD 260338Z 2604/2624 33004KT P6SM SCT025
     FM261400 07005KT 2SM -SN OVC010
     FM262100 36005KT 4SM -SHSN OVC009=



000
FTUS41 KCTP 260338 AAA
TAFAOO
TAF AMD
KAOO 260338Z 2604/2624 35004KT P6SM OVC200
     FM260900 03005KT 2SM -SN OVC010
     FM261200 01005KT 1SM -SN OVC005
     FM262200 32005KT 6SM -SN OVC015=



000
FTUS41 KCTP 260338 AAA
TAFMDT
TAF AMD
KMDT 260338Z 2604/2624 VRB03KT P6SM OVC200
     FM260900 35005KT 3SM -RASN OVC015
     FM261100 02008KT 1SM -SN OVC005
     FM261300 35010KT 1/2SM SN OVC003
     FM262300 31010KT 3SM -SN OVC015=



000
FTUS41 KCTP 252348
TAFAOO
TAF
KAOO 252348Z 2600/2624 25005KT P6SM BKN250
     FM260300 VRB03KT P6SM OVC200
     FM260900 04005KT 2SM -SN OVC010
     FM261200 01005KT 1SM -SN OVC005
     FM262200 32005KT 6SM -SN OVC015=



000
FTUS41 KCTP 252348
TAFJST
TAF
KJST 252348Z 2600/2624 27008KT P6SM BKN200
     FM260300 VRB05KT P6SM OVC200
     FM260900 06005KT 2SM -SN OVC010
     FM261200 36005KT 1SM -SN OVC005
     FM262100 30005KT 3SM -SHSN OVC004=



000
FTUS41 KCTP 252348
TAFIPT
TAF
KIPT 252348Z 2600/2624 25005KT P6SM BKN250
     FM260500 VRB03KT P6SM OVC200
     FM261100 02005KT 2SM -SN OVC010
     FM261400 36005KT 1SM -SN OVC005
     FM262300 31005KT 4SM -SN OVC010=



000
FTUS41 KCTP 252348
TAFBFD
TAF
KBFD 252348Z 2600/2624 29005KT P6SM OVC025
     FM261400 07005KT 2SM -SN OVC010
     FM262100 36005KT 4SM -SHSN OVC009=



000
FTUS41 KCTP 252348
TAFAOO
TAF
KAOO 252348Z 2600/2624 25005KT P6SM BKN250
     FM260300 VRB03KT P6SM OVC200
     FM260900 04005KT 2SM -SN OVC010
     FM261200 01005KT 1SM -SN OVC005
     FM262200 32005KT 6SM -SN OVC015=



000
FTUS41 KCTP 252348
TAFUNV
TAF
KUNV 252348Z 2600/2624 26004KT P6SM BKN250
     FM260400 VRB03KT P6SM OVC200
     FM261000 03005KT 2SM -SN OVC010
     FM261300 02005KT 1SM -SN OVC005
     FM262300 32005KT 5SM -SN OVC010=



000
FTUS41 KCTP 252348
TAFUNV
TAF
KUNV 252348Z 2600/2624 26004KT P6SM BKN250
     FM260400 VRB03KT P6SM OVC200
     FM261000 03005KT 2SM -SN OVC010
     FM261300 02005KT 1SM -SN OVC005
     FM262300 32005KT 5SM -SN OVC010=



000
FTUS41 KCTP 252348
TAFMDT
TAF
KMDT 252348Z 2600/2624 VRB04KT P6SM OVC250
     FM260800 35005KT 3SM -RASN OVC015
     FM261000 02008KT 1SM -SN OVC005
     FM261300 35010KT 1/2SM SN OVC003
     FM262300 31010KT 3SM -SN OVC015=



000
FTUS41 KCTP 252348
TAFIPT
TAF
KIPT 252348Z 2600/2624 25005KT P6SM BKN250
     FM260500 VRB03KT P6SM OVC200
     FM261100 02005KT 2SM -SN OVC010
     FM261400 36005KT 1SM -SN OVC005
     FM262300 31005KT 4SM -SN OVC010=



000
FTUS41 KCTP 252348
TAFBFD
TAF
KBFD 252348Z 2600/2624 29005KT P6SM OVC025
     FM261400 07005KT 2SM -SN OVC010
     FM262100 36005KT 4SM -SHSN OVC009=



000
FTUS41 KCTP 252348
TAFMDT
TAF
KMDT 252348Z 2600/2624 VRB04KT P6SM OVC250
     FM260800 35005KT 3SM -RASN OVC015
     FM261000 02008KT 1SM -SN OVC005
     FM261300 35010KT 1/2SM SN OVC003
     FM262300 31010KT 3SM -SN OVC015=



000
FTUS41 KCTP 252348
TAFJST
TAF
KJST 252348Z 2600/2624 27008KT P6SM BKN200
     FM260300 VRB05KT P6SM OVC200
     FM260900 06005KT 2SM -SN OVC010
     FM261200 36005KT 1SM -SN OVC005
     FM262100 30005KT 3SM -SHSN OVC004=



000
FTUS41 KCTP 252230 AAB
TAFMDT
TAF AMD
KMDT 252230Z 2523/2618 VRB05KT P6SM BKN200
     FM260800 35005KT 3SM -RASN OVC015
     FM261000 02008KT 1SM -SN OVC005
     FM261300 35010KT 1/2SM SN OVC003=



000
FTUS41 KCTP 252230 AAA
TAFJST
TAF AMD
KJST 252230Z 2523/2618 25007KT P6SM FEW040
     FM260300 VRB05KT P6SM OVC200
     FM260900 06005KT 2SM -SN OVC010
     FM261200 03005KT 1SM -SN OVC005=



000
FTUS41 KCTP 252230 AAB
TAFMDT
TAF AMD
KMDT 252230Z 2523/2618 VRB05KT P6SM BKN200
     FM260800 35005KT 3SM -RASN OVC015
     FM261000 02008KT 1SM -SN OVC005
     FM261300 35010KT 1/2SM SN OVC003=



000
FTUS41 KCTP 252230 AAB
TAFUNV
TAF AMD
KUNV 252230Z 2523/2618 26005KT P6SM SKC
     FM260400 VRB03KT P6SM OVC200
     FM261000 03005KT 2SM -SN OVC010
     FM261300 02005KT 1SM -SN OVC005=



000
FTUS41 KCTP 252230 AAC
TAFBFD
TAF AMD
KBFD 252230Z 2523/2618 26005KT P6SM OVC035
     FM261200 07005KT 2SM -SN OVC010=



000
FTUS41 KCTP 252230 AAC
TAFBFD
TAF AMD
KBFD 252230Z 2523/2618 26005KT P6SM OVC035
     FM261200 07005KT 2SM -SN OVC010=



000
FTUS41 KCTP 252230 AAB
TAFIPT
TAF AMD
KIPT 252230Z 2523/2618 24005KT P6SM SKC
     FM260500 VRB03KT P6SM OVC200
     FM261100 02005KT 2SM -SN OVC010
     FM261400 36005KT 1SM -SN OVC005=



000
FTUS41 KCTP 252230 AAB
TAFUNV
TAF AMD
KUNV 252230Z 2523/2618 26005KT P6SM SKC
     FM260400 VRB03KT P6SM OVC200
     FM261000 03005KT 2SM -SN OVC010
     FM261300 02005KT 1SM -SN OVC005=



000
FTUS41 KCTP 252230 AAB
TAFIPT
TAF AMD
KIPT 252230Z 2523/2618 24005KT P6SM SKC
     FM260500 VRB03KT P6SM OVC200
     FM261100 02005KT 2SM -SN OVC010
     FM261400 36005KT 1SM -SN OVC005=



000
FTUS41 KCTP 252230 AAA
TAFJST
TAF AMD
KJST 252230Z 2523/2618 25007KT P6SM FEW040
     FM260300 VRB05KT P6SM OVC200
     FM260900 06005KT 2SM -SN OVC010
     FM261200 03005KT 1SM -SN OVC005=



000
FTUS41 KCTP 252230 AAB
TAFAOO
TAF AMD
KAOO 252230Z 2523/2618 25005KT P6SM SKC
     FM260300 VRB03KT P6SM OVC200
     FM260900 04005KT 2SM -SN OVC010
     FM261200 01005KT 1SM -SN OVC005=



000
FTUS41 KCTP 252230 AAB
TAFAOO
TAF AMD
KAOO 252230Z 2523/2618 25005KT P6SM SKC
     FM260300 VRB03KT P6SM OVC200
     FM260900 04005KT 2SM -SN OVC010
     FM261200 01005KT 1SM -SN OVC005=



000
FTUS41 KCTP 251943 AAA
TAFAOO
TAF AMD
KAOO 251943Z 2520/2618 27010G20KT P6SM BKN250
     FM252300 25006KT P6SM OVC100
     FM261000 07006KT 4SM -SN BR OVC025
     FM261200 06007KT 3/4SM -SN BR OVC006=



000
FTUS41 KCTP 251943 AAA
TAFAOO
TAF AMD
KAOO 251943Z 2520/2618 27010G20KT P6SM BKN250
     FM252300 25006KT P6SM OVC100
     FM261000 07006KT 4SM -SN BR OVC025
     FM261200 06007KT 3/4SM -SN BR OVC006=



000
FTUS41 KCTP 251943 AAA
TAFUNV
TAF AMD
KUNV 251943Z 2520/2618 26010G20KT P6SM BKN250
     FM252300 25006KT P6SM OVC100
     FM261100 07006KT 4SM -SN BR OVC025
     FM261300 06007KT 3/4SM -SN BR OVC006=



000
FTUS41 KCTP 251943 AAA
TAFUNV
TAF AMD
KUNV 251943Z 2520/2618 26010G20KT P6SM BKN250
     FM252300 25006KT P6SM OVC100
     FM261100 07006KT 4SM -SN BR OVC025
     FM261300 06007KT 3/4SM -SN BR OVC006=



000
FTUS41 KCTP 251942 AAA
TAFMDT
TAF AMD
KMDT 251942Z 2520/2618 29010G20KT P6SM BKN150 OVC250
     FM252200 28005KT P6SM OVC100
     FM260800 36006KT 5SM -RASN BR BKN025 OVC060
     FM261100 03007KT 3/4SM -SN BR OVC009
     FM261500 02008G16KT 1/2SM SN OVC006=



000
FTUS41 KCTP 251942 AAA
TAFMDT
TAF AMD
KMDT 251942Z 2520/2618 29010G20KT P6SM BKN150 OVC250
     FM252200 28005KT P6SM OVC100
     FM260800 36006KT 5SM -RASN BR BKN025 OVC060
     FM261100 03007KT 3/4SM -SN BR OVC009
     FM261500 02008G16KT 1/2SM SN OVC006=



000
FTUS41 KCTP 251942 AAA
TAFIPT
TAF AMD
KIPT 251942Z 2520/2618 26010G20KT P6SM BKN250
     FM252300 26006KT P6SM OVC100
     FM261200 04006KT 4SM -SN BR OVC025
     FM261400 03007KT 3/4SM -SN BR OVC006=



000
FTUS41 KCTP 251942 AAA
TAFIPT
TAF AMD
KIPT 251942Z 2520/2618 26010G20KT P6SM BKN250
     FM252300 26006KT P6SM OVC100
     FM261200 04006KT 4SM -SN BR OVC025
     FM261400 03007KT 3/4SM -SN BR OVC006=



000
FTUS41 KCTP 251913 AAB
TAFBFD
TAF AMD
KBFD 251913Z 2519/2618 25008KT P6SM BKN035
     FM252300 26006KT P6SM SCT030
     FM261300 07006KT 5SM -SN BR OVC030
     FM261500 06007KT 2SM -SN BR OVC015=



000
FTUS41 KCTP 251913 AAB
TAFBFD
TAF AMD
KBFD 251913Z 2519/2618 25008KT P6SM BKN035
     FM252300 26006KT P6SM SCT030
     FM261300 07006KT 5SM -SN BR OVC030
     FM261500 06007KT 2SM -SN BR OVC015=



    US Dept of Commerce
    National Oceanic and Atmospheric Administration
    National Weather Service
    1325 East West Highway
    Silver Spring, MD 20910
    Page Author: NWS Internet Services Team
Disclaimer
Information Quality
Credits
Glossary
Privacy Policy
Freedom of Information Act (FOIA)
About Us
Career Opportunities